sensor_id;sensor_type;location;lat;lon;timestamp;P1;durP1;ratioP1;P2;durP2;ratioP2
2105;SDS011;1059;52.548;13.408;2022-12-18T00:02:19;45.20;;;18.87;;
2105;SDS011;1059;52.548;13.408;2022-12-18T00:04:46;42.47;;;18.33;;
2105;SDS011;1059;52.548;13.408;2022-12-18T00:07:13;38.53;;;19.10;;
2105;SDS011;1059;52.548;13.408;2022-12-18T00:09:40;44.40;;;18.37;;
2105;SDS011;1059;52.548;13.408;2022-12-18T00:12:07;50.23;;;18.37;;
2105;SDS011;1059;52.548;13.408;2022-12-18T00:14:36;36.90;;;17.87;;
2105;SDS011;1059;52.548;13.408;2022-12-18T00:17:02;48.70;;;19.53;;
2105;SDS011;1059;52.548;13.408;2022-12-18T00:19:29;34.60;;;17.43;;
2105;SDS011;1059;52.548;13.408;2022-12-18T00:21:56;48.20;;;18.20;;
2105;SDS011;1059;52.548;13.408;2022-12-18T00:24:23;40.43;;;18.57;;
2105;SDS011;1059;52.548;13.408;2022-12-18T00:26:50;48.87;;;20.60;;
2105;SDS011;1059;52.548;13.408;2022-12-18T00:29:17;51.33;;;18.87;;
2105;SDS011;1059;52.548;13.408;2022-12-18T00:31:45;42.53;;;19.57;;
2105;SDS011;1059;52.548;13.408;2022-12-18T00:34:12;45.27;;;20.17;;
2105;SDS011;1059;52.548;13.408;2022-12-18T00:36:40;44.73;;;19.40;;
2105;SDS011;1059;52.548;13.408;2022-12-18T00:39:08;50.80;;;19.70;;
2105;SDS011;1059;52.548;13.408;2022-12-18T00:41:36;36.30;;;17.77;;
2105;SDS011;1059;52.548;13.408;2022-12-18T00:44:21;38.37;;;16.90;;
2105;SDS011;1059;52.548;13.408;2022-12-18T00:46:49;44.53;;;20.67;;
2105;SDS011;1059;52.548;13.408;2022-12-18T00:49:16;39.57;;;19.07;;
2105;SDS011;1059;52.548;13.408;2022-12-18T00:51:44;47.80;;;20.10;;
2105;SDS011;1059;52.548;13.408;2022-12-18T00:54:11;42.40;;;21.40;;
2105;SDS011;1059;52.548;13.408;2022-12-18T00:56:38;53.83;;;21.40;;
2105;SDS011;1059;52.548;13.408;2022-12-18T00:59:05;40.63;;;19.03;;
2105;SDS011;1059;52.548;13.408;2022-12-18T01:01:32;43.17;;;20.23;;
2105;SDS011;1059;52.548;13.408;2022-12-18T01:04:02;44.60;;;17.77;;
2105;SDS011;1059;52.548;13.408;2022-12-18T01:06:29;41.23;;;16.80;;
2105;SDS011;1059;52.548;13.408;2022-12-18T01:08:56;39.17;;;18.33;;
2105;SDS011;1059;52.548;13.408;2022-12-18T01:11:23;41.93;;;18.60;;
2105;SDS011;1059;52.548;13.408;2022-12-18T01:13:51;38.90;;;17.83;;
2105;SDS011;1059;52.548;13.408;2022-12-18T01:16:19;41.67;;;18.50;;
2105;SDS011;1059;52.548;13.408;2022-12-18T01:18:46;39.43;;;18.77;;
2105;SDS011;1059;52.548;13.408;2022-12-18T01:21:15;42.27;;;18.17;;
2105;SDS011;1059;52.548;13.408;2022-12-18T01:23:46;45.30;;;19.13;;
2105;SDS011;1059;52.548;13.408;2022-12-18T01:26:13;46.67;;;20.80;;
2105;SDS011;1059;52.548;13.408;2022-12-18T01:28:41;39.60;;;17.23;;
2105;SDS011;1059;52.548;13.408;2022-12-18T01:31:13;50.23;;;18.47;;
2105;SDS011;1059;52.548;13.408;2022-12-18T01:33:42;40.23;;;18.33;;
2105;SDS011;1059;52.548;13.408;2022-12-18T01:36:15;39.67;;;18.27;;
2105;SDS011;1059;52.548;13.408;2022-12-18T01:38:43;44.43;;;19.47;;
2105;SDS011;1059;52.548;13.408;2022-12-18T01:41:11;42.00;;;18.53;;
2105;SDS011;1059;52.548;13.408;2022-12-18T01:43:41;55.27;;;21.10;;
2105;SDS011;1059;52.548;13.408;2022-12-18T01:46:16;48.43;;;19.10;;
2105;SDS011;1059;52.548;13.408;2022-12-18T01:48:44;35.93;;;16.67;;
2105;SDS011;1059;52.548;13.408;2022-12-18T01:51:16;40.60;;;17.70;;
2105;SDS011;1059;52.548;13.408;2022-12-18T01:53:43;34.07;;;18.80;;
2105;SDS011;1059;52.548;13.408;2022-12-18T01:56:12;39.10;;;17.87;;
2105;SDS011;1059;52.548;13.408;2022-12-18T01:58:44;33.00;;;17.20;;
2105;SDS011;1059;52.548;13.408;2022-12-18T02:01:16;38.17;;;17.77;;
2105;SDS011;1059;52.548;13.408;2022-12-18T02:03:44;36.33;;;17.47;;
2105;SDS011;1059;52.548;13.408;2022-12-18T02:06:13;36.70;;;16.60;;
2105;SDS011;1059;52.548;13.408;2022-12-18T02:08:48;36.73;;;17.23;;
2105;SDS011;1059;52.548;13.408;2022-12-18T02:11:27;38.90;;;18.73;;
2105;SDS011;1059;52.548;13.408;2022-12-18T02:14:04;41.93;;;18.87;;
2105;SDS011;1059;52.548;13.408;2022-12-18T02:16:43;33.90;;;17.70;;
2105;SDS011;1059;52.548;13.408;2022-12-18T02:19:20;42.90;;;18.27;;
2105;SDS011;1059;52.548;13.408;2022-12-18T02:22:07;37.03;;;17.63;;
2105;SDS011;1059;52.548;13.408;2022-12-18T02:24:50;44.40;;;20.43;;
2105;SDS011;1059;52.548;13.408;2022-12-18T02:27:27;40.47;;;19.10;;
2105;SDS011;1059;52.548;13.408;2022-12-18T02:29:58;39.73;;;18.50;;
2105;SDS011;1059;52.548;13.408;2022-12-18T02:32:27;41.00;;;19.00;;
2105;SDS011;1059;52.548;13.408;2022-12-18T02:34:56;51.70;;;20.13;;
2105;SDS011;1059;52.548;13.408;2022-12-18T02:37:25;41.20;;;19.70;;
2105;SDS011;1059;52.548;13.408;2022-12-18T02:39:55;36.20;;;18.13;;
2105;SDS011;1059;52.548;13.408;2022-12-18T02:42:24;46.43;;;22.90;;
2105;SDS011;1059;52.548;13.408;2022-12-18T02:44:56;42.50;;;20.67;;
2105;SDS011;1059;52.548;13.408;2022-12-18T02:47:23;41.90;;;19.57;;
2105;SDS011;1059;52.548;13.408;2022-12-18T02:50:01;45.87;;;20.40;;
2105;SDS011;1059;52.548;13.408;2022-12-18T02:52:35;48.63;;;21.70;;
2105;SDS011;1059;52.548;13.408;2022-12-18T02:55:13;53.10;;;20.60;;
2105;SDS011;1059;52.548;13.408;2022-12-18T02:57:46;49.70;;;22.20;;
2105;SDS011;1059;52.548;13.408;2022-12-18T03:00:21;51.77;;;21.43;;
2105;SDS011;1059;52.548;13.408;2022-12-18T03:02:51;44.43;;;20.87;;
2105;SDS011;1059;52.548;13.408;2022-12-18T03:05:28;56.07;;;22.13;;
2105;SDS011;1059;52.548;13.408;2022-12-18T03:08:01;55.97;;;22.40;;
2105;SDS011;1059;52.548;13.408;2022-12-18T03:10:34;51.53;;;21.70;;
2105;SDS011;1059;52.548;13.408;2022-12-18T03:13:06;55.67;;;21.47;;
2105;SDS011;1059;52.548;13.408;2022-12-18T03:15:37;54.07;;;22.70;;
2105;SDS011;1059;52.548;13.408;2022-12-18T03:18:08;53.83;;;23.37;;
2105;SDS011;1059;52.548;13.408;2022-12-18T03:20:39;52.77;;;22.10;;
2105;SDS011;1059;52.548;13.408;2022-12-18T03:23:11;59.67;;;22.70;;
2105;SDS011;1059;52.548;13.408;2022-12-18T03:25:40;49.93;;;19.83;;
2105;SDS011;1059;52.548;13.408;2022-12-18T03:28:12;66.17;;;26.27;;
2105;SDS011;1059;52.548;13.408;2022-12-18T03:30:43;63.60;;;25.87;;
2105;SDS011;1059;52.548;13.408;2022-12-18T03:33:12;60.40;;;24.60;;
2105;SDS011;1059;52.548;13.408;2022-12-18T03:35:44;56.40;;;25.60;;
2105;SDS011;1059;52.548;13.408;2022-12-18T03:38:12;66.73;;;28.57;;
2105;SDS011;1059;52.548;13.408;2022-12-18T03:40:43;66.33;;;25.63;;
2105;SDS011;1059;52.548;13.408;2022-12-18T03:43:18;82.40;;;26.67;;
2105;SDS011;1059;52.548;13.408;2022-12-18T03:45:52;53.40;;;25.30;;
2105;SDS011;1059;52.548;13.408;2022-12-18T03:48:28;64.77;;;25.33;;
2105;SDS011;1059;52.548;13.408;2022-12-18T03:51:01;56.67;;;22.47;;
2105;SDS011;1059;52.548;13.408;2022-12-18T03:53:33;60.67;;;24.50;;
2105;SDS011;1059;52.548;13.408;2022-12-18T03:56:05;56.87;;;23.40;;
2105;SDS011;1059;52.548;13.408;2022-12-18T03:58:34;68.27;;;24.23;;
2105;SDS011;1059;52.548;13.408;2022-12-18T04:01:05;52.13;;;21.57;;
2105;SDS011;1059;52.548;13.408;2022-12-18T04:03:34;54.23;;;21.93;;
2105;SDS011;1059;52.548;13.408;2022-12-18T04:06:02;51.93;;;21.97;;
2105;SDS011;1059;52.548;13.408;2022-12-18T04:08:31;50.60;;;20.60;;
2105;SDS011;1059;52.548;13.408;2022-12-18T04:10:59;53.50;;;21.80;;
2105;SDS011;1059;52.548;13.408;2022-12-18T04:13:27;57.67;;;21.37;;
2105;SDS011;1059;52.548;13.408;2022-12-18T04:15:56;48.27;;;19.67;;
2105;SDS011;1059;52.548;13.408;2022-12-18T04:18:24;55.67;;;20.70;;
2105;SDS011;1059;52.548;13.408;2022-12-18T04:20:51;45.40;;;20.30;;
2105;SDS011;1059;52.548;13.408;2022-12-18T04:23:18;47.43;;;19.67;;
2105;SDS011;1059;52.548;13.408;2022-12-18T04:25:45;43.23;;;21.00;;
2105;SDS011;1059;52.548;13.408;2022-12-18T04:28:12;46.70;;;19.40;;
2105;SDS011;1059;52.548;13.408;2022-12-18T04:30:39;42.73;;;20.17;;
2105;SDS011;1059;52.548;13.408;2022-12-18T04:33:08;45.50;;;20.90;;
2105;SDS011;1059;52.548;13.408;2022-12-18T04:35:37;41.33;;;18.33;;
2105;SDS011;1059;52.548;13.408;2022-12-18T04:38:05;56.27;;;19.10;;
2105;SDS011;1059;52.548;13.408;2022-12-18T04:40:32;41.93;;;17.90;;
2105;SDS011;1059;52.548;13.408;2022-12-18T04:42:58;41.00;;;17.70;;
2105;SDS011;1059;52.548;13.408;2022-12-18T04:45:25;51.63;;;17.90;;
2105;SDS011;1059;52.548;13.408;2022-12-18T04:47:52;40.67;;;19.40;;
2105;SDS011;1059;52.548;13.408;2022-12-18T04:50:19;48.43;;;19.97;;
2105;SDS011;1059;52.548;13.408;2022-12-18T04:52:47;38.97;;;18.60;;
2105;SDS011;1059;52.548;13.408;2022-12-18T04:55:14;47.90;;;19.50;;
2105;SDS011;1059;52.548;13.408;2022-12-18T04:57:41;45.53;;;19.50;;
2105;SDS011;1059;52.548;13.408;2022-12-18T05:00:08;44.97;;;19.80;;
2105;SDS011;1059;52.548;13.408;2022-12-18T05:02:36;41.60;;;18.77;;
2105;SDS011;1059;52.548;13.408;2022-12-18T05:05:03;43.63;;;20.67;;
2105;SDS011;1059;52.548;13.408;2022-12-18T05:07:31;46.30;;;18.70;;
2105;SDS011;1059;52.548;13.408;2022-12-18T05:09:59;44.50;;;18.03;;
2105;SDS011;1059;52.548;13.408;2022-12-18T05:12:26;38.50;;;17.37;;
2105;SDS011;1059;52.548;13.408;2022-12-18T05:14:52;39.90;;;17.77;;
2105;SDS011;1059;52.548;13.408;2022-12-18T05:17:19;42.23;;;17.70;;
2105;SDS011;1059;52.548;13.408;2022-12-18T05:19:46;43.40;;;20.00;;
2105;SDS011;1059;52.548;13.408;2022-12-18T05:22:13;43.10;;;18.10;;
2105;SDS011;1059;52.548;13.408;2022-12-18T05:24:40;38.77;;;16.80;;
2105;SDS011;1059;52.548;13.408;2022-12-18T05:27:08;41.97;;;18.80;;
2105;SDS011;1059;52.548;13.408;2022-12-18T05:29:35;48.50;;;19.43;;
2105;SDS011;1059;52.548;13.408;2022-12-18T05:32:02;42.80;;;17.00;;
2105;SDS011;1059;52.548;13.408;2022-12-18T05:34:29;42.90;;;18.10;;
2105;SDS011;1059;52.548;13.408;2022-12-18T05:36:56;46.63;;;18.07;;
2105;SDS011;1059;52.548;13.408;2022-12-18T05:39:22;45.13;;;16.90;;
2105;SDS011;1059;52.548;13.408;2022-12-18T05:41:49;45.33;;;17.30;;
2105;SDS011;1059;52.548;13.408;2022-12-18T05:44:17;42.33;;;17.40;;
2105;SDS011;1059;52.548;13.408;2022-12-18T05:46:44;39.83;;;19.40;;
2105;SDS011;1059;52.548;13.408;2022-12-18T05:49:11;50.77;;;19.90;;
2105;SDS011;1059;52.548;13.408;2022-12-18T05:51:38;39.57;;;16.30;;
2105;SDS011;1059;52.548;13.408;2022-12-18T05:54:05;41.07;;;16.77;;
2105;SDS011;1059;52.548;13.408;2022-12-18T05:56:31;46.90;;;17.90;;
2105;SDS011;1059;52.548;13.408;2022-12-18T05:58:58;40.83;;;18.00;;
2105;SDS011;1059;52.548;13.408;2022-12-18T06:01:26;40.83;;;18.43;;
2105;SDS011;1059;52.548;13.408;2022-12-18T06:03:53;51.03;;;19.50;;
2105;SDS011;1059;52.548;13.408;2022-12-18T06:06:22;51.00;;;19.37;;
2105;SDS011;1059;52.548;13.408;2022-12-18T06:08:50;39.57;;;17.57;;
2105;SDS011;1059;52.548;13.408;2022-12-18T06:11:18;49.97;;;18.60;;
2105;SDS011;1059;52.548;13.408;2022-12-18T06:13:46;47.80;;;18.60;;
2105;SDS011;1059;52.548;13.408;2022-12-18T06:16:16;44.47;;;17.63;;
2105;SDS011;1059;52.548;13.408;2022-12-18T06:18:44;49.43;;;20.80;;
2105;SDS011;1059;52.548;13.408;2022-12-18T06:21:12;51.97;;;20.60;;
2105;SDS011;1059;52.548;13.408;2022-12-18T06:23:39;49.87;;;21.63;;
2105;SDS011;1059;52.548;13.408;2022-12-18T06:26:07;50.07;;;20.97;;
2105;SDS011;1059;52.548;13.408;2022-12-18T06:28:35;54.30;;;21.60;;
2105;SDS011;1059;52.548;13.408;2022-12-18T06:31:02;46.90;;;19.23;;
2105;SDS011;1059;52.548;13.408;2022-12-18T06:33:31;47.50;;;23.03;;
2105;SDS011;1059;52.548;13.408;2022-12-18T06:36:00;41.27;;;18.27;;
2105;SDS011;1059;52.548;13.408;2022-12-18T06:38:28;42.53;;;18.30;;
2105;SDS011;1059;52.548;13.408;2022-12-18T06:40:55;53.33;;;21.47;;
2105;SDS011;1059;52.548;13.408;2022-12-18T06:43:21;52.30;;;20.37;;
2105;SDS011;1059;52.548;13.408;2022-12-18T06:45:48;49.47;;;20.67;;
2105;SDS011;1059;52.548;13.408;2022-12-18T06:48:17;52.77;;;21.77;;
2105;SDS011;1059;52.548;13.408;2022-12-18T06:50:44;48.73;;;22.40;;
2105;SDS011;1059;52.548;13.408;2022-12-18T06:53:13;46.87;;;20.23;;
2105;SDS011;1059;52.548;13.408;2022-12-18T06:55:40;50.40;;;19.73;;
2105;SDS011;1059;52.548;13.408;2022-12-18T06:58:07;47.17;;;20.47;;
2105;SDS011;1059;52.548;13.408;2022-12-18T07:00:33;48.60;;;21.50;;
2105;SDS011;1059;52.548;13.408;2022-12-18T07:03:00;59.03;;;24.37;;
2105;SDS011;1059;52.548;13.408;2022-12-18T07:05:27;55.67;;;23.07;;
2105;SDS011;1059;52.548;13.408;2022-12-18T07:07:54;54.27;;;22.07;;
2105;SDS011;1059;52.548;13.408;2022-12-18T07:10:22;57.67;;;21.70;;
2105;SDS011;1059;52.548;13.408;2022-12-18T07:12:49;52.77;;;22.03;;
2105;SDS011;1059;52.548;13.408;2022-12-18T07:15:16;54.57;;;22.30;;
2105;SDS011;1059;52.548;13.408;2022-12-18T07:17:43;45.93;;;20.87;;
2105;SDS011;1059;52.548;13.408;2022-12-18T07:20:10;54.57;;;21.47;;
2105;SDS011;1059;52.548;13.408;2022-12-18T07:22:37;55.17;;;21.67;;
2105;SDS011;1059;52.548;13.408;2022-12-18T07:25:04;46.90;;;21.40;;
2105;SDS011;1059;52.548;13.408;2022-12-18T07:27:33;46.50;;;21.13;;
2105;SDS011;1059;52.548;13.408;2022-12-18T07:30:00;53.63;;;20.30;;
2105;SDS011;1059;52.548;13.408;2022-12-18T07:32:27;51.90;;;21.37;;
2105;SDS011;1059;52.548;13.408;2022-12-18T07:34:54;53.80;;;22.53;;
2105;SDS011;1059;52.548;13.408;2022-12-18T07:37:20;52.57;;;21.40;;
2105;SDS011;1059;52.548;13.408;2022-12-18T07:39:47;47.73;;;18.60;;
2105;SDS011;1059;52.548;13.408;2022-12-18T07:42:14;48.47;;;21.07;;
2105;SDS011;1059;52.548;13.408;2022-12-18T07:44:57;43.20;;;18.03;;
2105;SDS011;1059;52.548;13.408;2022-12-18T07:47:24;54.47;;;19.27;;
2105;SDS011;1059;52.548;13.408;2022-12-18T07:49:51;48.47;;;21.10;;
2105;SDS011;1059;52.548;13.408;2022-12-18T07:52:18;52.23;;;21.33;;
2105;SDS011;1059;52.548;13.408;2022-12-18T07:54:45;51.10;;;20.33;;
2105;SDS011;1059;52.548;13.408;2022-12-18T07:57:16;56.97;;;22.23;;
2105;SDS011;1059;52.548;13.408;2022-12-18T07:59:43;56.00;;;21.27;;
2105;SDS011;1059;52.548;13.408;2022-12-18T08:02:11;43.47;;;18.37;;
2105;SDS011;1059;52.548;13.408;2022-12-18T08:04:38;57.10;;;20.50;;
2105;SDS011;1059;52.548;13.408;2022-12-18T08:07:05;47.23;;;20.07;;
2105;SDS011;1059;52.548;13.408;2022-12-18T08:09:32;53.00;;;21.17;;
2105;SDS011;1059;52.548;13.408;2022-12-18T08:11:59;54.53;;;21.77;;
2105;SDS011;1059;52.548;13.408;2022-12-18T08:14:26;39.77;;;19.00;;
2105;SDS011;1059;52.548;13.408;2022-12-18T08:16:53;39.90;;;19.60;;
2105;SDS011;1059;52.548;13.408;2022-12-18T08:19:21;46.93;;;21.50;;
2105;SDS011;1059;52.548;13.408;2022-12-18T08:21:48;46.60;;;20.07;;
2105;SDS011;1059;52.548;13.408;2022-12-18T08:24:14;49.30;;;19.50;;
2105;SDS011;1059;52.548;13.408;2022-12-18T08:26:41;41.53;;;19.43;;
2105;SDS011;1059;52.548;13.408;2022-12-18T08:29:08;43.83;;;20.97;;
2105;SDS011;1059;52.548;13.408;2022-12-18T08:31:35;42.03;;;18.83;;
2105;SDS011;1059;52.548;13.408;2022-12-18T08:34:03;42.10;;;19.57;;
2105;SDS011;1059;52.548;13.408;2022-12-18T08:36:31;37.97;;;18.87;;
2105;SDS011;1059;52.548;13.408;2022-12-18T08:38:58;42.93;;;18.50;;
2105;SDS011;1059;52.548;13.408;2022-12-18T08:41:25;45.70;;;19.33;;
2105;SDS011;1059;52.548;13.408;2022-12-18T08:43:51;39.63;;;18.30;;
2105;SDS011;1059;52.548;13.408;2022-12-18T08:46:36;39.70;;;18.90;;
2105;SDS011;1059;52.548;13.408;2022-12-18T08:49:04;44.10;;;19.60;;
2105;SDS011;1059;52.548;13.408;2022-12-18T08:51:34;34.53;;;19.50;;
2105;SDS011;1059;52.548;13.408;2022-12-18T08:54:01;43.03;;;20.37;;
2105;SDS011;1059;52.548;13.408;2022-12-18T08:56:28;39.43;;;19.33;;
2105;SDS011;1059;52.548;13.408;2022-12-18T08:58:55;36.97;;;19.00;;
2105;SDS011;1059;52.548;13.408;2022-12-18T09:01:22;38.30;;;18.00;;
2105;SDS011;1059;52.548;13.408;2022-12-18T09:03:50;36.37;;;16.90;;
2105;SDS011;1059;52.548;13.408;2022-12-18T09:06:17;35.00;;;17.23;;
2105;SDS011;1059;52.548;13.408;2022-12-18T09:08:47;44.93;;;19.53;;
2105;SDS011;1059;52.548;13.408;2022-12-18T09:11:14;39.63;;;20.77;;
2105;SDS011;1059;52.548;13.408;2022-12-18T09:13:47;35.43;;;19.03;;
2105;SDS011;1059;52.548;13.408;2022-12-18T09:16:14;38.67;;;18.13;;
2105;SDS011;1059;52.548;13.408;2022-12-18T09:18:41;35.57;;;19.23;;
2105;SDS011;1059;52.548;13.408;2022-12-18T09:21:09;34.60;;;18.70;;
2105;SDS011;1059;52.548;13.408;2022-12-18T09:23:36;38.57;;;17.23;;
2105;SDS011;1059;52.548;13.408;2022-12-18T09:26:05;42.97;;;18.00;;
2105;SDS011;1059;52.548;13.408;2022-12-18T09:28:32;42.00;;;19.43;;
2105;SDS011;1059;52.548;13.408;2022-12-18T09:31:03;43.30;;;18.63;;
2105;SDS011;1059;52.548;13.408;2022-12-18T09:33:30;38.47;;;17.37;;
2105;SDS011;1059;52.548;13.408;2022-12-18T09:35:57;42.57;;;19.37;;
2105;SDS011;1059;52.548;13.408;2022-12-18T09:38:26;33.77;;;17.90;;
2105;SDS011;1059;52.548;13.408;2022-12-18T09:40:55;39.87;;;20.03;;
2105;SDS011;1059;52.548;13.408;2022-12-18T09:43:28;43.30;;;19.50;;
2105;SDS011;1059;52.548;13.408;2022-12-18T09:46:07;45.57;;;18.73;;
2105;SDS011;1059;52.548;13.408;2022-12-18T09:48:38;38.37;;;18.90;;
2105;SDS011;1059;52.548;13.408;2022-12-18T09:51:11;39.73;;;17.20;;
2105;SDS011;1059;52.548;13.408;2022-12-18T09:53:41;33.67;;;17.60;;
2105;SDS011;1059;52.548;13.408;2022-12-18T09:56:12;40.47;;;20.83;;
2105;SDS011;1059;52.548;13.408;2022-12-18T09:58:46;35.27;;;17.73;;
2105;SDS011;1059;52.548;13.408;2022-12-18T10:01:20;35.77;;;17.80;;
2105;SDS011;1059;52.548;13.408;2022-12-18T10:03:48;37.20;;;16.53;;
2105;SDS011;1059;52.548;13.408;2022-12-18T10:06:18;36.70;;;17.50;;
2105;SDS011;1059;52.548;13.408;2022-12-18T10:08:49;40.03;;;17.70;;
2105;SDS011;1059;52.548;13.408;2022-12-18T10:11:30;39.90;;;17.67;;
2105;SDS011;1059;52.548;13.408;2022-12-18T10:14:07;37.87;;;17.47;;
2105;SDS011;1059;52.548;13.408;2022-12-18T10:16:40;42.93;;;19.33;;
2105;SDS011;1059;52.548;13.408;2022-12-18T10:19:17;35.60;;;17.60;;
2105;SDS011;1059;52.548;13.408;2022-12-18T10:21:55;44.03;;;19.40;;
2105;SDS011;1059;52.548;13.408;2022-12-18T10:24:30;43.53;;;19.33;;
2105;SDS011;1059;52.548;13.408;2022-12-18T10:27:07;40.87;;;19.60;;
2105;SDS011;1059;52.548;13.408;2022-12-18T10:29:41;40.93;;;19.13;;
2105;SDS011;1059;52.548;13.408;2022-12-18T10:32:13;44.77;;;19.20;;
2105;SDS011;1059;52.548;13.408;2022-12-18T10:34:44;39.43;;;20.43;;
2105;SDS011;1059;52.548;13.408;2022-12-18T10:37:13;40.30;;;19.73;;
2105;SDS011;1059;52.548;13.408;2022-12-18T10:39:43;41.50;;;19.33;;
2105;SDS011;1059;52.548;13.408;2022-12-18T10:42:10;44.37;;;19.53;;
2105;SDS011;1059;52.548;13.408;2022-12-18T10:44:43;39.90;;;19.07;;
2105;SDS011;1059;52.548;13.408;2022-12-18T10:47:12;41.37;;;19.70;;
2105;SDS011;1059;52.548;13.408;2022-12-18T10:49:42;33.97;;;18.87;;
2105;SDS011;1059;52.548;13.408;2022-12-18T10:52:15;40.33;;;20.10;;
2105;SDS011;1059;52.548;13.408;2022-12-18T10:54:48;32.20;;;16.67;;
2105;SDS011;1059;52.548;13.408;2022-12-18T10:57:34;34.37;;;16.63;;
2105;SDS011;1059;52.548;13.408;2022-12-18T11:00:20;38.40;;;17.70;;
2105;SDS011;1059;52.548;13.408;2022-12-18T11:02:50;40.73;;;18.70;;
2105;SDS011;1059;52.548;13.408;2022-12-18T11:05:25;42.77;;;20.10;;
2105;SDS011;1059;52.548;13.408;2022-12-18T11:07:54;49.37;;;21.40;;
2105;SDS011;1059;52.548;13.408;2022-12-18T11:10:22;49.47;;;20.20;;
2105;SDS011;1059;52.548;13.408;2022-12-18T11:12:52;45.03;;;19.67;;
2105;SDS011;1059;52.548;13.408;2022-12-18T11:15:21;38.73;;;19.53;;
2105;SDS011;1059;52.548;13.408;2022-12-18T11:17:52;34.53;;;18.23;;
2105;SDS011;1059;52.548;13.408;2022-12-18T11:20:21;46.27;;;19.87;;
2105;SDS011;1059;52.548;13.408;2022-12-18T11:22:54;41.57;;;19.23;;
2105;SDS011;1059;52.548;13.408;2022-12-18T11:25:23;41.20;;;19.10;;
2105;SDS011;1059;52.548;13.408;2022-12-18T11:27:51;31.87;;;18.23;;
2105;SDS011;1059;52.548;13.408;2022-12-18T11:30:24;41.73;;;21.07;;
2105;SDS011;1059;52.548;13.408;2022-12-18T11:32:53;38.37;;;18.87;;
2105;SDS011;1059;52.548;13.408;2022-12-18T11:35:38;32.10;;;17.37;;
2105;SDS011;1059;52.548;13.408;2022-12-18T11:38:12;40.63;;;18.50;;
2105;SDS011;1059;52.548;13.408;2022-12-18T11:40:49;34.30;;;17.17;;
2105;SDS011;1059;52.548;13.408;2022-12-18T11:43:22;38.90;;;18.27;;
2105;SDS011;1059;52.548;13.408;2022-12-18T11:45:55;34.67;;;18.13;;
2105;SDS011;1059;52.548;13.408;2022-12-18T11:48:27;33.63;;;17.40;;
2105;SDS011;1059;52.548;13.408;2022-12-18T11:50:57;35.43;;;18.97;;
2105;SDS011;1059;52.548;13.408;2022-12-18T11:53:26;41.17;;;18.80;;
2105;SDS011;1059;52.548;13.408;2022-12-18T11:56:00;37.50;;;18.83;;
2105;SDS011;1059;52.548;13.408;2022-12-18T11:58:42;30.93;;;17.90;;
2105;SDS011;1059;52.548;13.408;2022-12-18T12:01:18;33.53;;;18.77;;
2105;SDS011;1059;52.548;13.408;2022-12-18T12:03:59;35.40;;;18.23;;
2105;SDS011;1059;52.548;13.408;2022-12-18T12:06:40;35.17;;;19.00;;
2105;SDS011;1059;52.548;13.408;2022-12-18T12:09:18;39.03;;;19.30;;
2105;SDS011;1059;52.548;13.408;2022-12-18T12:11:53;37.43;;;18.67;;
2105;SDS011;1059;52.548;13.408;2022-12-18T12:14:34;34.07;;;16.23;;
2105;SDS011;1059;52.548;13.408;2022-12-18T12:17:12;33.60;;;18.60;;
2105;SDS011;1059;52.548;13.408;2022-12-18T12:19:48;31.80;;;16.47;;
2105;SDS011;1059;52.548;13.408;2022-12-18T12:22:22;27.77;;;15.77;;
2105;SDS011;1059;52.548;13.408;2022-12-18T12:24:58;33.70;;;16.67;;
2105;SDS011;1059;52.548;13.408;2022-12-18T12:27:46;36.10;;;19.47;;
2105;SDS011;1059;52.548;13.408;2022-12-18T12:30:20;36.93;;;17.43;;
2105;SDS011;1059;52.548;13.408;2022-12-18T12:32:57;31.20;;;17.33;;
2105;SDS011;1059;52.548;13.408;2022-12-18T12:35:40;33.23;;;16.90;;
2105;SDS011;1059;52.548;13.408;2022-12-18T12:38:14;35.77;;;18.07;;
2105;SDS011;1059;52.548;13.408;2022-12-18T12:40:46;36.97;;;18.20;;
2105;SDS011;1059;52.548;13.408;2022-12-18T12:43:22;32.13;;;17.50;;
2105;SDS011;1059;52.548;13.408;2022-12-18T12:45:54;33.20;;;17.30;;
2105;SDS011;1059;52.548;13.408;2022-12-18T12:48:31;32.87;;;17.47;;
2105;SDS011;1059;52.548;13.408;2022-12-18T12:51:01;38.30;;;18.80;;
2105;SDS011;1059;52.548;13.408;2022-12-18T12:53:34;34.23;;;16.47;;
2105;SDS011;1059;52.548;13.408;2022-12-18T12:56:04;39.27;;;20.10;;
2105;SDS011;1059;52.548;13.408;2022-12-18T12:58:33;38.67;;;19.77;;
2105;SDS011;1059;52.548;13.408;2022-12-18T13:01:12;46.17;;;19.90;;
2105;SDS011;1059;52.548;13.408;2022-12-18T13:03:53;34.17;;;18.27;;
2105;SDS011;1059;52.548;13.408;2022-12-18T13:06:28;39.87;;;20.10;;
2105;SDS011;1059;52.548;13.408;2022-12-18T13:09:05;33.23;;;18.60;;
2105;SDS011;1059;52.548;13.408;2022-12-18T13:11:34;46.93;;;20.17;;
2105;SDS011;1059;52.548;13.408;2022-12-18T13:14:22;35.83;;;18.77;;
2105;SDS011;1059;52.548;13.408;2022-12-18T13:16:50;40.17;;;20.10;;
2105;SDS011;1059;52.548;13.408;2022-12-18T13:19:25;30.33;;;17.73;;
2105;SDS011;1059;52.548;13.408;2022-12-18T13:21:53;40.43;;;18.60;;
2105;SDS011;1059;52.548;13.408;2022-12-18T13:24:23;35.30;;;18.07;;
2105;SDS011;1059;52.548;13.408;2022-12-18T13:26:52;30.27;;;17.90;;
2105;SDS011;1059;52.548;13.408;2022-12-18T13:32:19;35.43;;;18.83;;
2105;SDS011;1059;52.548;13.408;2022-12-18T13:34:48;37.43;;;19.70;;
2105;SDS011;1059;52.548;13.408;2022-12-18T13:37:41;37.93;;;17.77;;
2105;SDS011;1059;52.548;13.408;2022-12-18T13:46:18;31.20;;;17.13;;
2105;SDS011;1059;52.548;13.408;2022-12-18T13:48:54;38.83;;;19.30;;
2105;SDS011;1059;52.548;13.408;2022-12-18T13:51:25;37.03;;;20.20;;
2105;SDS011;1059;52.548;13.408;2022-12-18T13:53:53;34.93;;;18.80;;
2105;SDS011;1059;52.548;13.408;2022-12-18T13:56:24;31.23;;;17.90;;
2105;SDS011;1059;52.548;13.408;2022-12-18T14:01:46;34.13;;;17.53;;
2105;SDS011;1059;52.548;13.408;2022-12-18T14:04:22;32.37;;;19.57;;
2105;SDS011;1059;52.548;13.408;2022-12-18T14:06:57;35.83;;;18.30;;
2105;SDS011;1059;52.548;13.408;2022-12-18T14:09:29;31.40;;;18.40;;
2105;SDS011;1059;52.548;13.408;2022-12-18T14:11:57;30.07;;;16.90;;
2105;SDS011;1059;52.548;13.408;2022-12-18T14:14:40;31.10;;;18.67;;
2105;SDS011;1059;52.548;13.408;2022-12-18T14:17:10;31.30;;;18.93;;
2105;SDS011;1059;52.548;13.408;2022-12-18T14:19:40;34.10;;;19.87;;
2105;SDS011;1059;52.548;13.408;2022-12-18T14:22:13;33.70;;;19.27;;
2105;SDS011;1059;52.548;13.408;2022-12-18T14:24:42;36.00;;;20.07;;
2105;SDS011;1059;52.548;13.408;2022-12-18T14:27:13;34.83;;;21.10;;
2105;SDS011;1059;52.548;13.408;2022-12-18T14:29:47;36.03;;;21.13;;
2105;SDS011;1059;52.548;13.408;2022-12-18T14:32:15;40.80;;;21.70;;
2105;SDS011;1059;52.548;13.408;2022-12-18T14:34:43;41.23;;;20.53;;
2105;SDS011;1059;52.548;13.408;2022-12-18T14:37:12;34.77;;;19.60;;
2105;SDS011;1059;52.548;13.408;2022-12-18T14:39:51;35.30;;;18.13;;
2105;SDS011;1059;52.548;13.408;2022-12-18T14:42:19;36.93;;;20.70;;
2105;SDS011;1059;52.548;13.408;2022-12-18T14:44:46;35.73;;;21.00;;
2105;SDS011;1059;52.548;13.408;2022-12-18T14:47:13;33.00;;;21.70;;
2105;SDS011;1059;52.548;13.408;2022-12-18T14:49:41;33.20;;;19.00;;
2105;SDS011;1059;52.548;13.408;2022-12-18T14:52:15;34.17;;;20.10;;
2105;SDS011;1059;52.548;13.408;2022-12-18T14:54:48;35.80;;;21.53;;
2105;SDS011;1059;52.548;13.408;2022-12-18T14:57:20;32.13;;;18.60;;
2105;SDS011;1059;52.548;13.408;2022-12-18T14:59:49;26.33;;;17.80;;
2105;SDS011;1059;52.548;13.408;2022-12-18T15:02:18;35.50;;;17.80;;
2105;SDS011;1059;52.548;13.408;2022-12-18T15:04:48;27.93;;;17.83;;